sensor_id;sensor_type;location;lat;lon;timestamp;temperature;humidity
67817;DHT22;54614;47.576;7.524;2023-02-17T00:03:44;23.00;48.00
67817;DHT22;54614;47.576;7.524;2023-02-17T00:06:13;23.00;48.00
67817;DHT22;54614;47.576;7.524;2023-02-17T00:08:40;23.00;48.00
67817;DHT22;54614;47.576;7.524;2023-02-17T00:11:06;23.00;48.00
67817;DHT22;54614;47.576;7.524;2023-02-17T00:13:32;23.00;48.00
67817;DHT22;54614;47.576;7.524;2023-02-17T00:15:58;23.00;48.00
67817;DHT22;54614;47.576;7.524;2023-02-17T00:18:24;23.00;48.00
67817;DHT22;54614;47.576;7.524;2023-02-17T00:20:51;23.00;48.00
67817;DHT22;54614;47.576;7.524;2023-02-17T00:23:17;23.00;48.00
67817;DHT22;54614;47.576;7.524;2023-02-17T00:25:43;22.90;47.90
67817;DHT22;54614;47.576;7.524;2023-02-17T00:28:09;22.90;47.90
67817;DHT22;54614;47.576;7.524;2023-02-17T00:30:36;23.00;48.00
67817;DHT22;54614;47.576;7.524;2023-02-17T00:33:03;23.00;48.00
67817;DHT22;54614;47.576;7.524;2023-02-17T00:35:29;23.00;48.00
67817;DHT22;54614;47.576;7.524;2023-02-17T00:37:55;23.00;48.00
67817;DHT22;54614;47.576;7.524;2023-02-17T00:40:21;22.90;47.90
67817;DHT22;54614;47.576;7.524;2023-02-17T00:42:46;22.90;48.00
67817;DHT22;54614;47.576;7.524;2023-02-17T00:45:13;22.90;48.00
67817;DHT22;54614;47.576;7.524;2023-02-17T00:47:39;22.90;48.00
67817;DHT22;54614;47.576;7.524;2023-02-17T00:50:05;22.90;48.00
67817;DHT22;54614;47.576;7.524;2023-02-17T00:52:32;22.90;48.00
67817;DHT22;54614;47.576;7.524;2023-02-17T00:54:57;22.90;48.00
67817;DHT22;54614;47.576;7.524;2023-02-17T00:57:23;22.90;48.00
67817;DHT22;54614;47.576;7.524;2023-02-17T00:59:50;22.90;48.00
67817;DHT22;54614;47.576;7.524;2023-02-17T01:02:16;22.90;48.00
67817;DHT22;54614;47.576;7.524;2023-02-17T01:04:42;22.90;48.00
67817;DHT22;54614;47.576;7.524;2023-02-17T01:07:08;22.90;48.00
67817;DHT22;54614;47.576;7.524;2023-02-17T01:09:34;22.90;48.00
67817;DHT22;54614;47.576;7.524;2023-02-17T01:11:59;22.90;48.00
67817;DHT22;54614;47.576;7.524;2023-02-17T01:14:25;22.90;48.00
67817;DHT22;54614;47.576;7.524;2023-02-17T01:16:51;22.90;48.00
67817;DHT22;54614;47.576;7.524;2023-02-17T01:19:18;22.90;48.00
67817;DHT22;54614;47.576;7.524;2023-02-17T01:21:44;22.90;48.00
67817;DHT22;54614;47.576;7.524;2023-02-17T01:24:11;22.80;48.00
67817;DHT22;54614;47.576;7.524;2023-02-17T01:26:39;22.90;48.00
67817;DHT22;54614;47.576;7.524;2023-02-17T01:29:06;22.90;48.00
67817;DHT22;54614;47.576;7.524;2023-02-17T01:31:32;22.80;48.00
67817;DHT22;54614;47.576;7.524;2023-02-17T01:34:00;22.80;48.00
67817;DHT22;54614;47.576;7.524;2023-02-17T01:36:27;22.80;48.00
67817;DHT22;54614;47.576;7.524;2023-02-17T01:38:53;22.80;48.00
67817;DHT22;54614;47.576;7.524;2023-02-17T01:41:22;22.80;48.00
67817;DHT22;54614;47.576;7.524;2023-02-17T01:44:17;22.80;48.00
67817;DHT22;54614;47.576;7.524;2023-02-17T01:46:47;22.80;48.00
67817;DHT22;54614;47.576;7.524;2023-02-17T01:52:04;22.80;48.10
67817;DHT22;54614;47.576;7.524;2023-02-17T01:54:42;22.80;48.00
67817;DHT22;54614;47.576;7.524;2023-02-17T01:57:15;22.80;48.00
67817;DHT22;54614;47.576;7.524;2023-02-17T01:59:44;22.80;48.10
67817;DHT22;54614;47.576;7.524;2023-02-17T02:02:11;22.80;48.10
67817;DHT22;54614;47.576;7.524;2023-02-17T02:04:39;22.80;48.10
67817;DHT22;54614;47.576;7.524;2023-02-17T02:07:15;22.80;48.10
67817;DHT22;54614;47.576;7.524;2023-02-17T02:09:48;22.70;48.10
67817;DHT22;54614;47.576;7.524;2023-02-17T02:12:25;22.80;48.20
67817;DHT22;54614;47.576;7.524;2023-02-17T02:14:57;22.80;48.20
67817;DHT22;54614;47.576;7.524;2023-02-17T02:17:51;22.80;48.10
67817;DHT22;54614;47.576;7.524;2023-02-17T02:26:14;22.70;48.10
67817;DHT22;54614;47.576;7.524;2023-02-17T02:32:38;22.70;48.10
67817;DHT22;54614;47.576;7.524;2023-02-17T02:35:58;22.70;48.10
67817;DHT22;54614;47.576;7.524;2023-02-17T02:38:31;22.70;48.10
67817;DHT22;54614;47.576;7.524;2023-02-17T02:41:48;22.70;48.10
67817;DHT22;54614;47.576;7.524;2023-02-17T02:44:13;22.70;48.10
67817;DHT22;54614;47.576;7.524;2023-02-17T02:46:42;22.70;48.10
67817;DHT22;54614;47.576;7.524;2023-02-17T02:49:08;22.70;48.10
67817;DHT22;54614;47.576;7.524;2023-02-17T02:51:46;22.70;48.10
67817;DHT22;54614;47.576;7.524;2023-02-17T02:54:35;22.70;48.10
67817;DHT22;54614;47.576;7.524;2023-02-17T03:00:40;22.70;48.20
67817;DHT22;54614;47.576;7.524;2023-02-17T03:03:38;22.70;48.20
67817;DHT22;54614;47.576;7.524;2023-02-17T03:06:13;22.70;48.20
67817;DHT22;54614;47.576;7.524;2023-02-17T03:08:56;22.70;48.20
67817;DHT22;54614;47.576;7.524;2023-02-17T03:11:27;22.70;48.20
67817;DHT22;54614;47.576;7.524;2023-02-17T03:14:20;22.70;48.20
67817;DHT22;54614;47.576;7.524;2023-02-17T03:16:48;22.70;48.20
67817;DHT22;54614;47.576;7.524;2023-02-17T03:19:18;22.70;48.20
67817;DHT22;54614;47.576;7.524;2023-02-17T03:21:54;22.70;48.20
67817;DHT22;54614;47.576;7.524;2023-02-17T03:24:23;22.60;48.10
67817;DHT22;54614;47.576;7.524;2023-02-17T03:26:50;22.70;48.30
67817;DHT22;54614;47.576;7.524;2023-02-17T03:29:16;22.70;48.20
67817;DHT22;54614;47.576;7.524;2023-02-17T03:31:42;22.70;48.20
67817;DHT22;54614;47.576;7.524;2023-02-17T03:34:07;22.60;48.20
67817;DHT22;54614;47.576;7.524;2023-02-17T03:36:33;22.60;48.20
67817;DHT22;54614;47.576;7.524;2023-02-17T03:38:59;22.60;48.20
67817;DHT22;54614;47.576;7.524;2023-02-17T03:41:25;22.60;48.20
67817;DHT22;54614;47.576;7.524;2023-02-17T03:43:51;22.60;48.20
67817;DHT22;54614;47.576;7.524;2023-02-17T03:46:17;22.60;48.20
67817;DHT22;54614;47.576;7.524;2023-02-17T03:48:43;22.60;48.20
67817;DHT22;54614;47.576;7.524;2023-02-17T03:51:11;22.60;48.20
67817;DHT22;54614;47.576;7.524;2023-02-17T03:53:43;22.60;48.20
67817;DHT22;54614;47.576;7.524;2023-02-17T03:56:10;22.60;48.20
67817;DHT22;54614;47.576;7.524;2023-02-17T03:58:38;22.60;48.20
67817;DHT22;54614;47.576;7.524;2023-02-17T04:01:05;22.60;48.20
67817;DHT22;54614;47.576;7.524;2023-02-17T04:03:33;22.60;48.20
67817;DHT22;54614;47.576;7.524;2023-02-17T04:06:00;22.60;48.20
67817;DHT22;54614;47.576;7.524;2023-02-17T04:08:27;22.60;48.20
67817;DHT22;54614;47.576;7.524;2023-02-17T04:10:55;22.60;48.20
67817;DHT22;54614;47.576;7.524;2023-02-17T04:13:23;22.60;48.30
67817;DHT22;54614;47.576;7.524;2023-02-17T04:15:51;22.60;48.30
67817;DHT22;54614;47.576;7.524;2023-02-17T04:18:19;22.60;48.30
67817;DHT22;54614;47.576;7.524;2023-02-17T04:20:47;22.60;48.30
67817;DHT22;54614;47.576;7.524;2023-02-17T04:23:15;22.60;48.30
67817;DHT22;54614;47.576;7.524;2023-02-17T04:25:42;22.50;48.20
67817;DHT22;54614;47.576;7.524;2023-02-17T04:28:08;22.60;48.30
67817;DHT22;54614;47.576;7.524;2023-02-17T04:30:35;22.80;48.40
67817;DHT22;54614;47.576;7.524;2023-02-17T04:33:01;22.60;48.30
67817;DHT22;54614;47.576;7.524;2023-02-17T04:35:28;22.50;48.20
67817;DHT22;54614;47.576;7.524;2023-02-17T04:37:54;22.60;48.30
67817;DHT22;54614;47.576;7.524;2023-02-17T04:40:20;22.50;48.30
67817;DHT22;54614;47.576;7.524;2023-02-17T04:42:46;22.50;48.30
67817;DHT22;54614;47.576;7.524;2023-02-17T04:45:12;22.60;48.30
67817;DHT22;54614;47.576;7.524;2023-02-17T04:47:38;22.50;48.20
67817;DHT22;54614;47.576;7.524;2023-02-17T04:50:06;22.50;48.20
67817;DHT22;54614;47.576;7.524;2023-02-17T04:52:33;22.50;48.30
67817;DHT22;54614;47.576;7.524;2023-02-17T04:54:59;22.50;48.30
67817;DHT22;54614;47.576;7.524;2023-02-17T04:57:26;22.50;48.20
67817;DHT22;54614;47.576;7.524;2023-02-17T04:59:51;22.50;48.30
67817;DHT22;54614;47.576;7.524;2023-02-17T05:02:18;22.50;48.30
67817;DHT22;54614;47.576;7.524;2023-02-17T05:04:44;22.50;48.30
67817;DHT22;54614;47.576;7.524;2023-02-17T05:07:10;22.60;48.50
67817;DHT22;54614;47.576;7.524;2023-02-17T05:09:36;22.60;48.40
67817;DHT22;54614;47.576;7.524;2023-02-17T05:12:02;22.50;48.30
67817;DHT22;54614;47.576;7.524;2023-02-17T05:14:30;22.60;48.30
67817;DHT22;54614;47.576;7.524;2023-02-17T05:16:55;22.50;48.30
67817;DHT22;54614;47.576;7.524;2023-02-17T05:19:21;22.60;48.50
67817;DHT22;54614;47.576;7.524;2023-02-17T05:21:47;22.50;48.40
67817;DHT22;54614;47.576;7.524;2023-02-17T05:24:13;22.50;48.50
67817;DHT22;54614;47.576;7.524;2023-02-17T05:26:39;22.50;48.50
67817;DHT22;54614;47.576;7.524;2023-02-17T05:29:04;22.50;48.50
67817;DHT22;54614;47.576;7.524;2023-02-17T05:31:30;22.50;48.50
67817;DHT22;54614;47.576;7.524;2023-02-17T05:33:56;22.50;48.50
67817;DHT22;54614;47.576;7.524;2023-02-17T05:36:22;22.50;48.50
67817;DHT22;54614;47.576;7.524;2023-02-17T05:38:48;22.50;48.50
67817;DHT22;54614;47.576;7.524;2023-02-17T05:41:15;22.50;48.50
67817;DHT22;54614;47.576;7.524;2023-02-17T05:46:08;22.50;47.90
67817;DHT22;54614;47.576;7.524;2023-02-17T05:48:34;22.60;49.50
67817;DHT22;54614;47.576;7.524;2023-02-17T05:51:00;22.60;49.40
67817;DHT22;54614;47.576;7.524;2023-02-17T05:53:26;22.60;49.60
67817;DHT22;54614;47.576;7.524;2023-02-17T05:55:52;22.60;49.80
67817;DHT22;54614;47.576;7.524;2023-02-17T05:58:18;22.60;49.50
67817;DHT22;54614;47.576;7.524;2023-02-17T06:00:44;22.60;49.40
67817;DHT22;54614;47.576;7.524;2023-02-17T06:03:11;22.60;49.20
67817;DHT22;54614;47.576;7.524;2023-02-17T06:05:37;22.60;49.20
67817;DHT22;54614;47.576;7.524;2023-02-17T06:08:04;22.60;49.00
67817;DHT22;54614;47.576;7.524;2023-02-17T06:10:30;22.60;48.90
67817;DHT22;54614;47.576;7.524;2023-02-17T06:12:56;22.60;49.00
67817;DHT22;54614;47.576;7.524;2023-02-17T06:15:22;22.60;50.70
67817;DHT22;54614;47.576;7.524;2023-02-17T06:17:49;22.60;51.40
67817;DHT22;54614;47.576;7.524;2023-02-17T06:20:15;22.60;51.70
67817;DHT22;54614;47.576;7.524;2023-02-17T06:22:42;22.70;51.50
67817;DHT22;54614;47.576;7.524;2023-02-17T06:25:08;22.70;50.80
67817;DHT22;54614;47.576;7.524;2023-02-17T06:27:34;22.70;52.00
67817;DHT22;54614;47.576;7.524;2023-02-17T06:30:00;22.70;53.30
67817;DHT22;54614;47.576;7.524;2023-02-17T06:32:27;22.70;55.10
67817;DHT22;54614;47.576;7.524;2023-02-17T06:34:52;22.70;54.80
67817;DHT22;54614;47.576;7.524;2023-02-17T06:37:18;22.80;54.00
67817;DHT22;54614;47.576;7.524;2023-02-17T06:39:44;22.80;53.90
67817;DHT22;54614;47.576;7.524;2023-02-17T06:42:10;22.80;53.60
67817;DHT22;54614;47.576;7.524;2023-02-17T06:44:36;22.80;53.40
67817;DHT22;54614;47.576;7.524;2023-02-17T06:47:01;22.80;51.50
67817;DHT22;54614;47.576;7.524;2023-02-17T06:49:28;22.80;50.40
67817;DHT22;54614;47.576;7.524;2023-02-17T06:51:54;22.80;50.00
67817;DHT22;54614;47.576;7.524;2023-02-17T06:54:20;22.80;49.90
67817;DHT22;54614;47.576;7.524;2023-02-17T06:56:46;22.80;49.80
67817;DHT22;54614;47.576;7.524;2023-02-17T06:59:12;22.80;49.60
67817;DHT22;54614;47.576;7.524;2023-02-17T07:01:38;22.80;49.80
67817;DHT22;54614;47.576;7.524;2023-02-17T07:04:04;22.80;52.90
67817;DHT22;54614;47.576;7.524;2023-02-17T07:06:31;22.80;52.00
67817;DHT22;54614;47.576;7.524;2023-02-17T07:08:57;22.80;51.20
67817;DHT22;54614;47.576;7.524;2023-02-17T07:11:23;22.80;50.60
67817;DHT22;54614;47.576;7.524;2023-02-17T07:13:48;22.70;50.20
67817;DHT22;54614;47.576;7.524;2023-02-17T07:16:14;22.80;49.80
67817;DHT22;54614;47.576;7.524;2023-02-17T07:18:41;22.80;49.90
67817;DHT22;54614;47.576;7.524;2023-02-17T07:21:08;22.80;49.80
67817;DHT22;54614;47.576;7.524;2023-02-17T07:23:34;22.80;49.80
67817;DHT22;54614;47.576;7.524;2023-02-17T07:26:07;22.80;49.50
67817;DHT22;54614;47.576;7.524;2023-02-17T07:28:34;22.80;49.40
67817;DHT22;54614;47.576;7.524;2023-02-17T07:31:10;22.80;49.30
67817;DHT22;54614;47.576;7.524;2023-02-17T07:33:39;22.80;49.30
67817;DHT22;54614;47.576;7.524;2023-02-17T07:36:12;22.70;49.50
67817;DHT22;54614;47.576;7.524;2023-02-17T07:38:39;22.70;49.40
67817;DHT22;54614;47.576;7.524;2023-02-17T07:41:10;22.70;49.40
67817;DHT22;54614;47.576;7.524;2023-02-17T07:43:38;22.70;49.40
67817;DHT22;54614;47.576;7.524;2023-02-17T07:46:06;22.70;49.40
67817;DHT22;54614;47.576;7.524;2023-02-17T07:48:33;22.70;49.60
67817;DHT22;54614;47.576;7.524;2023-02-17T07:51:06;22.70;49.70
67817;DHT22;54614;47.576;7.524;2023-02-17T07:53:35;22.60;49.70
67817;DHT22;54614;47.576;7.524;2023-02-17T07:56:03;22.60;49.80
67817;DHT22;54614;47.576;7.524;2023-02-17T07:58:31;22.60;49.80
67817;DHT22;54614;47.576;7.524;2023-02-17T08:01:03;22.60;49.80
67817;DHT22;54614;47.576;7.524;2023-02-17T08:03:30;22.60;49.80
67817;DHT22;54614;47.576;7.524;2023-02-17T08:05:56;22.50;49.80
67817;DHT22;54614;47.576;7.524;2023-02-17T08:08:22;22.60;49.70
67817;DHT22;54614;47.576;7.524;2023-02-17T08:11:13;22.60;49.60
67817;DHT22;54614;47.576;7.524;2023-02-17T08:13:59;22.70;49.60
67817;DHT22;54614;47.576;7.524;2023-02-17T08:16:25;22.70;49.60
67817;DHT22;54614;47.576;7.524;2023-02-17T08:18:52;22.70;49.40
67817;DHT22;54614;47.576;7.524;2023-02-17T08:21:24;22.60;49.40
67817;DHT22;54614;47.576;7.524;2023-02-17T08:23:51;22.70;49.50
67817;DHT22;54614;47.576;7.524;2023-02-17T08:26:18;22.60;49.70
67817;DHT22;54614;47.576;7.524;2023-02-17T08:28:45;22.60;49.70
67817;DHT22;54614;47.576;7.524;2023-02-17T08:31:38;22.60;49.60
67817;DHT22;54614;47.576;7.524;2023-02-17T08:34:07;22.70;49.60
67817;DHT22;54614;47.576;7.524;2023-02-17T08:36:35;22.60;49.50
67817;DHT22;54614;47.576;7.524;2023-02-17T08:39:05;22.60;49.60
67817;DHT22;54614;47.576;7.524;2023-02-17T08:41:42;22.60;49.70
67817;DHT22;54614;47.576;7.524;2023-02-17T08:44:11;22.60;49.60
67817;DHT22;54614;47.576;7.524;2023-02-17T08:46:40;22.60;49.60
67817;DHT22;54614;47.576;7.524;2023-02-17T08:49:07;22.60;49.60
67817;DHT22;54614;47.576;7.524;2023-02-17T08:51:34;22.60;49.70
67817;DHT22;54614;47.576;7.524;2023-02-17T08:54:01;22.60;49.50
67817;DHT22;54614;47.576;7.524;2023-02-17T08:56:28;22.60;49.20
67817;DHT22;54614;47.576;7.524;2023-02-17T08:58:55;22.70;49.10
67817;DHT22;54614;47.576;7.524;2023-02-17T09:01:22;22.70;49.30
67817;DHT22;54614;47.576;7.524;2023-02-17T09:03:49;22.70;49.40
67817;DHT22;54614;47.576;7.524;2023-02-17T09:06:16;22.60;49.40
67817;DHT22;54614;47.576;7.524;2023-02-17T09:08:43;22.70;49.50
67817;DHT22;54614;47.576;7.524;2023-02-17T09:11:09;22.60;49.60
67817;DHT22;54614;47.576;7.524;2023-02-17T09:13:36;22.60;49.60
67817;DHT22;54614;47.576;7.524;2023-02-17T09:16:02;22.70;49.70
67817;DHT22;54614;47.576;7.524;2023-02-17T09:18:28;22.60;49.70
67817;DHT22;54614;47.576;7.524;2023-02-17T09:20:54;22.60;49.80
67817;DHT22;54614;47.576;7.524;2023-02-17T09:23:19;22.60;49.80
67817;DHT22;54614;47.576;7.524;2023-02-17T09:25:46;22.60;49.80
67817;DHT22;54614;47.576;7.524;2023-02-17T09:28:11;22.60;49.60
67817;DHT22;54614;47.576;7.524;2023-02-17T09:30:41;22.60;49.70
67817;DHT22;54614;47.576;7.524;2023-02-17T09:33:07;22.60;49.50
67817;DHT22;54614;47.576;7.524;2023-02-17T09:35:32;22.70;49.70
67817;DHT22;54614;47.576;7.524;2023-02-17T09:37:58;22.70;49.60
67817;DHT22;54614;47.576;7.524;2023-02-17T09:43:13;22.60;49.50
67817;DHT22;54614;47.576;7.524;2023-02-17T09:45:45;22.70;49.60
67817;DHT22;54614;47.576;7.524;2023-02-17T09:48:18;22.60;49.80
67817;DHT22;54614;47.576;7.524;2023-02-17T09:50:59;22.60;49.90
67817;DHT22;54614;47.576;7.524;2023-02-17T09:56:27;22.50;50.10
67817;DHT22;54614;47.576;7.524;2023-02-17T09:59:02;22.50;50.20
67817;DHT22;54614;47.576;7.524;2023-02-17T10:01:35;22.50;50.20
67817;DHT22;54614;47.576;7.524;2023-02-17T10:04:25;22.50;50.10
67817;DHT22;54614;47.576;7.524;2023-02-17T10:09:38;22.50;50.00
67817;DHT22;54614;47.576;7.524;2023-02-17T10:12:24;22.60;49.90
67817;DHT22;54614;47.576;7.524;2023-02-17T10:15:05;22.60;49.80
67817;DHT22;54614;47.576;7.524;2023-02-17T10:21:10;22.60;49.80
67817;DHT22;54614;47.576;7.524;2023-02-17T10:23:44;22.60;50.00
67817;DHT22;54614;47.576;7.524;2023-02-17T10:26:15;22.60;49.90
67817;DHT22;54614;47.576;7.524;2023-02-17T10:31:49;22.60;50.00
67817;DHT22;54614;47.576;7.524;2023-02-17T10:34:37;22.60;50.00
67817;DHT22;54614;47.576;7.524;2023-02-17T10:37:27;22.60;50.20
67817;DHT22;54614;47.576;7.524;2023-02-17T10:40:19;22.60;50.10
67817;DHT22;54614;47.576;7.524;2023-02-17T10:42:54;22.60;50.30
67817;DHT22;54614;47.576;7.524;2023-02-17T10:48:17;22.50;50.20
67817;DHT22;54614;47.576;7.524;2023-02-17T10:50:59;22.50;50.20
67817;DHT22;54614;47.576;7.524;2023-02-17T10:53:37;22.50;50.30
67817;DHT22;54614;47.576;7.524;2023-02-17T10:56:18;22.50;50.30
67817;DHT22;54614;47.576;7.524;2023-02-17T11:01:32;22.60;50.20
67817;DHT22;54614;47.576;7.524;2023-02-17T11:04:07;22.50;50.20
67817;DHT22;54614;47.576;7.524;2023-02-17T11:06:43;22.40;50.50
67817;DHT22;54614;47.576;7.524;2023-02-17T11:09:25;22.40;50.60
67817;DHT22;54614;47.576;7.524;2023-02-17T11:12:03;22.50;50.60
67817;DHT22;54614;47.576;7.524;2023-02-17T11:14:36;22.50;50.60
67817;DHT22;54614;47.576;7.524;2023-02-17T11:20:02;22.50;50.50
67817;DHT22;54614;47.576;7.524;2023-02-17T11:22:36;22.40;50.40
67817;DHT22;54614;47.576;7.524;2023-02-17T11:25:19;22.50;50.20
67817;DHT22;54614;47.576;7.524;2023-02-17T11:27:52;22.60;50.40
67817;DHT22;54614;47.576;7.524;2023-02-17T11:30:20;22.50;50.10
67817;DHT22;54614;47.576;7.524;2023-02-17T11:32:46;22.60;50.10
67817;DHT22;54614;47.576;7.524;2023-02-17T11:38:32;22.60;50.10
67817;DHT22;54614;47.576;7.524;2023-02-17T11:41:06;22.60;49.80
67817;DHT22;54614;47.576;7.524;2023-02-17T11:43:34;22.60;49.80
67817;DHT22;54614;47.576;7.524;2023-02-17T11:55:11;22.60;49.50
67817;DHT22;54614;47.576;7.524;2023-02-17T11:58:29;22.60;49.40
67817;DHT22;54614;47.576;7.524;2023-02-17T12:04:30;22.60;49.70
67817;DHT22;54614;47.576;7.524;2023-02-17T12:10:15;22.60;50.10
67817;DHT22;54614;47.576;7.524;2023-02-17T12:22:21;22.50;50.50
67817;DHT22;54614;47.576;7.524;2023-02-17T12:31:02;22.50;50.30
67817;DHT22;54614;47.576;7.524;2023-02-17T12:34:00;22.50;50.10
67817;DHT22;54614;47.576;7.524;2023-02-17T12:36:37;22.60;50.20
67817;DHT22;54614;47.576;7.524;2023-02-17T12:39:20;22.50;50.30
67817;DHT22;54614;47.576;7.524;2023-02-17T12:42:16;22.50;50.30
67817;DHT22;54614;47.576;7.524;2023-02-17T12:45:09;22.50;50.20
67817;DHT22;54614;47.576;7.524;2023-02-17T12:47:56;22.60;50.20
67817;DHT22;54614;47.576;7.524;2023-02-17T12:51:01;22.60;50.20
67817;DHT22;54614;47.576;7.524;2023-02-17T12:56:02;22.50;50.20
67817;DHT22;54614;47.576;7.524;2023-02-17T12:58:35;22.60;50.20
67817;DHT22;54614;47.576;7.524;2023-02-17T13:01:13;22.60;50.10
67817;DHT22;54614;47.576;7.524;2023-02-17T13:03:43;22.60;50.10
67817;DHT22;54614;47.576;7.524;2023-02-17T16:30:30;22.50;49.80
67817;DHT22;54614;47.576;7.524;2023-02-17T16:32:58;22.50;49.80
67817;DHT22;54614;47.576;7.524;2023-02-17T16:35:26;22.50;49.80
67817;DHT22;54614;47.576;7.524;2023-02-17T16:38:00;22.50;49.80
67817;DHT22;54614;47.576;7.524;2023-02-17T16:40:31;22.40;49.80
67817;DHT22;54614;47.576;7.524;2023-02-17T16:43:00;22.40;49.80
67817;DHT22;54614;47.576;7.524;2023-02-17T16:45:28;22.40;49.70
67817;DHT22;54614;47.576;7.524;2023-02-17T16:47:58;22.50;49.80
67817;DHT22;54614;47.576;7.524;2023-02-17T16:50:30;22.50;49.80
67817;DHT22;54614;47.576;7.524;2023-02-17T16:53:01;22.50;49.80
67817;DHT22;54614;47.576;7.524;2023-02-17T16:55:33;22.40;49.70
67817;DHT22;54614;47.576;7.524;2023-02-17T16:58:01;22.40;49.70
67817;DHT22;54614;47.576;7.524;2023-02-17T17:00:31;22.50;49.80
67817;DHT22;54614;47.576;7.524;2023-02-17T17:02:58;22.40;49.70
67817;DHT22;54614;47.576;7.524;2023-02-17T17:05:26;22.40;49.70
67817;DHT22;54614;47.576;7.524;2023-02-17T17:07:53;22.40;49.70
67817;DHT22;54614;47.576;7.524;2023-02-17T17:10:24;22.40;49.70
67817;DHT22;54614;47.576;7.524;2023-02-17T17:12:52;22.40;50.00
67817;DHT22;54614;47.576;7.524;2023-02-17T17:15:18;22.40;49.90
67817;DHT22;54614;47.576;7.524;2023-02-17T17:17:52;22.40;49.90
67817;DHT22;54614;47.576;7.524;2023-02-17T17:20:21;22.40;49.90
67817;DHT22;54614;47.576;7.524;2023-02-17T17:22:51;22.40;49.80
67817;DHT22;54614;47.576;7.524;2023-02-17T17:25:18;22.40;49.80
67817;DHT22;54614;47.576;7.524;2023-02-17T17:27:44;22.40;49.80
67817;DHT22;54614;47.576;7.524;2023-02-17T17:30:21;22.40;49.80
67817;DHT22;54614;47.576;7.524;2023-02-17T17:32:49;22.40;49.80
67817;DHT22;54614;47.576;7.524;2023-02-17T17:35:16;22.40;49.90
67817;DHT22;54614;47.576;7.524;2023-02-17T17:37:42;22.40;49.90
67817;DHT22;54614;47.576;7.524;2023-02-17T17:40:16;22.40;49.90
67817;DHT22;54614;47.576;7.524;2023-02-17T17:42:45;22.40;49.90
67817;DHT22;54614;47.576;7.524;2023-02-17T17:45:12;22.40;49.90
67817;DHT22;54614;47.576;7.524;2023-02-17T17:47:38;22.40;49.90
67817;DHT22;54614;47.576;7.524;2023-02-17T17:50:07;22.50;49.90
67817;DHT22;54614;47.576;7.524;2023-02-17T17:52:37;22.50;50.00
67817;DHT22;54614;47.576;7.524;2023-02-17T17:55:03;22.50;50.00
67817;DHT22;54614;47.576;7.524;2023-02-17T17:57:29;22.60;50.20
67817;DHT22;54614;47.576;7.524;2023-02-17T17:59:55;22.60;50.10
67817;DHT22;54614;47.576;7.524;2023-02-17T18:02:21;22.70;50.20
67817;DHT22;54614;47.576;7.524;2023-02-17T18:04:47;22.70;50.20
67817;DHT22;54614;47.576;7.524;2023-02-17T18:07:12;22.80;50.40
67817;DHT22;54614;47.576;7.524;2023-02-17T18:09:39;22.80;50.40
67817;DHT22;54614;47.576;7.524;2023-02-17T18:12:16;22.80;50.50
67817;DHT22;54614;47.576;7.524;2023-02-17T18:14:46;22.80;50.60
67817;DHT22;54614;47.576;7.524;2023-02-17T18:17:16;22.90;50.80
67817;DHT22;54614;47.576;7.524;2023-02-17T18:19:43;22.90;50.80
67817;DHT22;54614;47.576;7.524;2023-02-17T18:22:11;23.00;51.00
67817;DHT22;54614;47.576;7.524;2023-02-17T18:24:37;23.00;51.10
67817;DHT22;54614;47.576;7.524;2023-02-17T18:27:03;23.10;51.20
67817;DHT22;54614;47.576;7.524;2023-02-17T18:29:29;23.10;51.20
67817;DHT22;54614;47.576;7.524;2023-02-17T18:31:55;23.10;51.30
67817;DHT22;54614;47.576;7.524;2023-02-17T18:34:23;23.20;51.40
67817;DHT22;54614;47.576;7.524;2023-02-17T18:36:50;23.20;51.60
67817;DHT22;54614;47.576;7.524;2023-02-17T18:39:16;23.20;51.60
67817;DHT22;54614;47.576;7.524;2023-02-17T18:41:43;23.20;51.70
67817;DHT22;54614;47.576;7.524;2023-02-17T18:44:09;23.30;51.90
67817;DHT22;54614;47.576;7.524;2023-02-17T18:46:36;23.30;52.00
67817;DHT22;54614;47.576;7.524;2023-02-17T18:49:04;23.30;52.10
67817;DHT22;54614;47.576;7.524;2023-02-17T18:51:31;23.30;52.20
67817;DHT22;54614;47.576;7.524;2023-02-17T18:53:58;23.30;52.10
67817;DHT22;54614;47.576;7.524;2023-02-17T18:56:27;23.30;52.00
67817;DHT22;54614;47.576;7.524;2023-02-17T18:58:56;23.30;51.90
67817;DHT22;54614;47.576;7.524;2023-02-17T19:01:25;23.30;51.90
67817;DHT22;54614;47.576;7.524;2023-02-17T19:03:54;23.30;51.80
67817;DHT22;54614;47.576;7.524;2023-02-17T19:06:23;23.30;51.60
67817;DHT22;54614;47.576;7.524;2023-02-17T19:08:51;23.30;51.70
67817;DHT22;54614;47.576;7.524;2023-02-17T19:11:18;23.30;51.60
67817;DHT22;54614;47.576;7.524;2023-02-17T19:13:46;23.30;51.70
67817;DHT22;54614;47.576;7.524;2023-02-17T19:16:20;23.30;51.70
67817;DHT22;54614;47.576;7.524;2023-02-17T19:18:50;23.30;52.60
67817;DHT22;54614;47.576;7.524;2023-02-17T19:21:17;23.30;52.30
67817;DHT22;54614;47.576;7.524;2023-02-17T19:23:44;23.30;52.20
67817;DHT22;54614;47.576;7.524;2023-02-17T19:26:12;23.30;52.50
67817;DHT22;54614;47.576;7.524;2023-02-17T19:28:39;23.20;52.60
67817;DHT22;54614;47.576;7.524;2023-02-17T19:31:07;23.30;52.70
67817;DHT22;54614;47.576;7.524;2023-02-17T19:33:35;23.30;52.80
67817;DHT22;54614;47.576;7.524;2023-02-17T19:36:12;23.30;52.90
67817;DHT22;54614;47.576;7.524;2023-02-17T19:38:44;23.30;53.00
67817;DHT22;54614;47.576;7.524;2023-02-17T19:41:11;23.30;53.00
67817;DHT22;54614;47.576;7.524;2023-02-17T19:43:38;23.30;53.00
67817;DHT22;54614;47.576;7.524;2023-02-17T19:46:04;23.30;53.10
67817;DHT22;54614;47.576;7.524;2023-02-17T19:48:31;23.30;53.10
67817;DHT22;54614;47.576;7.524;2023-02-17T19:51:00;23.30;53.20
67817;DHT22;54614;47.576;7.524;2023-02-17T19:53:28;23.30;53.10
67817;DHT22;54614;47.576;7.524;2023-02-17T19:56:04;23.30;53.20
67817;DHT22;54614;47.576;7.524;2023-02-17T19:58:36;23.30;53.20
67817;DHT22;54614;47.576;7.524;2023-02-17T20:01:07;23.30;53.20
67817;DHT22;54614;47.576;7.524;2023-02-17T20:03:34;23.30;53.20
67817;DHT22;54614;47.576;7.524;2023-02-17T20:06:09;23.30;53.30
67817;DHT22;54614;47.576;7.524;2023-02-17T20:08:38;23.30;53.20
67817;DHT22;54614;47.576;7.524;2023-02-17T20:11:06;23.30;53.20
67817;DHT22;54614;47.576;7.524;2023-02-17T20:13:36;23.30;53.30
67817;DHT22;54614;47.576;7.524;2023-02-17T20:16:06;23.30;53.20
67817;DHT22;54614;47.576;7.524;2023-02-17T20:18:39;23.30;53.20
67817;DHT22;54614;47.576;7.524;2023-02-17T20:21:08;23.30;53.20
67817;DHT22;54614;47.576;7.524;2023-02-17T20:23:35;23.30;53.20
67817;DHT22;54614;47.576;7.524;2023-02-17T20:26:12;23.30;53.30
67817;DHT22;54614;47.576;7.524;2023-02-17T20:28:41;23.30;53.20
67817;DHT22;54614;47.576;7.524;2023-02-17T20:31:08;23.30;53.20
67817;DHT22;54614;47.576;7.524;2023-02-17T20:33:34;23.30;53.10